sensor_id;sensor_type;location;lat;lon;timestamp;P1;durP1;ratioP1;P2;durP2;ratioP2
62056;SDS011;48016;50.284;18.860;2023-11-21T00:00:34;8.50;;;4.90;;
62056;SDS011;48016;50.284;18.860;2023-11-21T00:03:22;8.10;;;4.80;;
62056;SDS011;48016;50.284;18.860;2023-11-21T00:05:49;9.10;;;5.10;;
62056;SDS011;48016;50.284;18.860;2023-11-21T00:08:16;8.90;;;4.90;;
62056;SDS011;48016;50.284;18.860;2023-11-21T00:10:43;11.70;;;6.20;;
62056;SDS011;48016;50.284;18.860;2023-11-21T00:13:10;10.70;;;5.40;;
62056;SDS011;48016;50.284;18.860;2023-11-21T00:15:38;10.30;;;5.50;;
62056;SDS011;48016;50.284;18.860;2023-11-21T00:18:06;10.30;;;5.90;;
62056;SDS011;48016;50.284;18.860;2023-11-21T00:20:33;10.70;;;6.40;;
62056;SDS011;48016;50.284;18.860;2023-11-21T00:22:59;11.80;;;6.60;;
62056;SDS011;48016;50.284;18.860;2023-11-21T00:25:26;12.80;;;6.60;;
62056;SDS011;48016;50.284;18.860;2023-11-21T00:27:53;11.00;;;6.70;;
62056;SDS011;48016;50.284;18.860;2023-11-21T00:30:20;10.90;;;6.00;;
62056;SDS011;48016;50.284;18.860;2023-11-21T00:32:48;10.90;;;6.40;;
62056;SDS011;48016;50.284;18.860;2023-11-21T00:35:15;11.30;;;6.70;;
62056;SDS011;48016;50.284;18.860;2023-11-21T00:37:42;13.70;;;7.30;;
62056;SDS011;48016;50.284;18.860;2023-11-21T00:40:08;13.40;;;7.60;;
62056;SDS011;48016;50.284;18.860;2023-11-21T00:42:36;12.40;;;7.50;;
62056;SDS011;48016;50.284;18.860;2023-11-21T00:45:02;14.20;;;8.70;;
62056;SDS011;48016;50.284;18.860;2023-11-21T00:47:29;12.80;;;8.60;;
62056;SDS011;48016;50.284;18.860;2023-11-21T00:49:56;13.40;;;8.70;;
62056;SDS011;48016;50.284;18.860;2023-11-21T00:52:23;13.20;;;8.40;;
62056;SDS011;48016;50.284;18.860;2023-11-21T00:54:49;14.20;;;8.80;;
62056;SDS011;48016;50.284;18.860;2023-11-21T00:57:16;15.60;;;9.20;;
62056;SDS011;48016;50.284;18.860;2023-11-21T00:59:42;13.90;;;8.60;;
62056;SDS011;48016;50.284;18.860;2023-11-21T01:02:09;15.00;;;8.10;;
62056;SDS011;48016;50.284;18.860;2023-11-21T01:04:36;11.80;;;8.00;;
62056;SDS011;48016;50.284;18.860;2023-11-21T01:07:04;15.10;;;8.00;;
62056;SDS011;48016;50.284;18.860;2023-11-21T01:09:31;8.90;;;6.60;;
62056;SDS011;48016;50.284;18.860;2023-11-21T01:11:58;10.40;;;6.40;;
62056;SDS011;48016;50.284;18.860;2023-11-21T01:16:53;10.30;;;6.70;;
62056;SDS011;48016;50.284;18.860;2023-11-21T01:19:20;10.30;;;6.10;;
62056;SDS011;48016;50.284;18.860;2023-11-21T01:21:46;7.70;;;5.10;;
62056;SDS011;48016;50.284;18.860;2023-11-21T01:24:13;8.90;;;5.60;;
62056;SDS011;48016;50.284;18.860;2023-11-21T01:26:39;10.70;;;5.90;;
62056;SDS011;48016;50.284;18.860;2023-11-21T01:29:06;10.40;;;5.40;;
62056;SDS011;48016;50.284;18.860;2023-11-21T01:31:33;11.30;;;5.70;;
62056;SDS011;48016;50.284;18.860;2023-11-21T01:33:59;9.50;;;5.90;;
62056;SDS011;48016;50.284;18.860;2023-11-21T01:36:32;9.20;;;5.10;;
62056;SDS011;48016;50.284;18.860;2023-11-21T01:38:59;8.00;;;5.10;;
62056;SDS011;48016;50.284;18.860;2023-11-21T01:41:26;8.20;;;4.50;;
62056;SDS011;48016;50.284;18.860;2023-11-21T01:43:54;9.70;;;4.70;;
62056;SDS011;48016;50.284;18.860;2023-11-21T01:46:21;9.60;;;4.60;;
62056;SDS011;48016;50.284;18.860;2023-11-21T01:51:16;6.80;;;4.30;;
62056;SDS011;48016;50.284;18.860;2023-11-21T01:53:43;8.30;;;5.00;;
62056;SDS011;48016;50.284;18.860;2023-11-21T01:56:12;9.20;;;5.30;;
62056;SDS011;48016;50.284;18.860;2023-11-21T01:58:39;11.20;;;5.10;;
62056;SDS011;48016;50.284;18.860;2023-11-21T02:01:07;8.70;;;5.20;;
62056;SDS011;48016;50.284;18.860;2023-11-21T02:03:34;8.00;;;4.90;;
62056;SDS011;48016;50.284;18.860;2023-11-21T02:06:00;10.70;;;5.10;;
62056;SDS011;48016;50.284;18.860;2023-11-21T02:08:27;8.20;;;4.60;;
62056;SDS011;48016;50.284;18.860;2023-11-21T02:10:54;7.20;;;4.20;;
62056;SDS011;48016;50.284;18.860;2023-11-21T02:13:20;6.90;;;4.30;;
62056;SDS011;48016;50.284;18.860;2023-11-21T02:15:47;7.30;;;4.10;;
62056;SDS011;48016;50.284;18.860;2023-11-21T02:18:16;8.70;;;4.00;;
62056;SDS011;48016;50.284;18.860;2023-11-21T02:20:43;8.70;;;3.90;;
62056;SDS011;48016;50.284;18.860;2023-11-21T02:23:10;7.30;;;4.00;;
62056;SDS011;48016;50.284;18.860;2023-11-21T02:25:39;8.80;;;3.60;;
62056;SDS011;48016;50.284;18.860;2023-11-21T02:28:05;9.40;;;4.10;;
62056;SDS011;48016;50.284;18.860;2023-11-21T02:30:33;7.10;;;3.40;;
62056;SDS011;48016;50.284;18.860;2023-11-21T02:33:00;8.30;;;3.80;;
62056;SDS011;48016;50.284;18.860;2023-11-21T02:35:27;10.00;;;3.80;;
62056;SDS011;48016;50.284;18.860;2023-11-21T02:37:54;7.50;;;3.80;;
62056;SDS011;48016;50.284;18.860;2023-11-21T02:40:21;7.60;;;4.10;;
62056;SDS011;48016;50.284;18.860;2023-11-21T02:42:48;8.40;;;3.70;;
62056;SDS011;48016;50.284;18.860;2023-11-21T02:45:17;7.90;;;4.00;;
62056;SDS011;48016;50.284;18.860;2023-11-21T02:47:47;6.00;;;3.20;;
62056;SDS011;48016;50.284;18.860;2023-11-21T02:50:15;7.70;;;3.50;;
62056;SDS011;48016;50.284;18.860;2023-11-21T02:52:41;10.50;;;4.60;;
62056;SDS011;48016;50.284;18.860;2023-11-21T02:55:08;9.60;;;4.00;;
62056;SDS011;48016;50.284;18.860;2023-11-21T02:57:35;7.80;;;3.50;;
62056;SDS011;48016;50.284;18.860;2023-11-21T03:00:01;9.10;;;3.70;;
62056;SDS011;48016;50.284;18.860;2023-11-21T03:02:28;6.90;;;3.30;;
62056;SDS011;48016;50.284;18.860;2023-11-21T03:04:55;6.20;;;3.70;;
62056;SDS011;48016;50.284;18.860;2023-11-21T03:07:22;7.20;;;3.50;;
62056;SDS011;48016;50.284;18.860;2023-11-21T03:09:48;7.40;;;3.60;;
62056;SDS011;48016;50.284;18.860;2023-11-21T03:12:15;6.30;;;3.40;;
62056;SDS011;48016;50.284;18.860;2023-11-21T03:14:42;12.20;;;4.30;;
62056;SDS011;48016;50.284;18.860;2023-11-21T03:17:08;8.00;;;3.90;;
62056;SDS011;48016;50.284;18.860;2023-11-21T03:19:35;9.40;;;3.80;;
62056;SDS011;48016;50.284;18.860;2023-11-21T03:22:01;8.00;;;4.50;;
62056;SDS011;48016;50.284;18.860;2023-11-21T03:24:28;8.90;;;4.20;;
62056;SDS011;48016;50.284;18.860;2023-11-21T03:26:55;8.30;;;4.00;;
62056;SDS011;48016;50.284;18.860;2023-11-21T03:29:21;7.90;;;3.90;;
62056;SDS011;48016;50.284;18.860;2023-11-21T03:31:48;8.20;;;4.00;;
62056;SDS011;48016;50.284;18.860;2023-11-21T03:34:16;7.50;;;4.30;;
62056;SDS011;48016;50.284;18.860;2023-11-21T03:36:51;9.50;;;4.80;;
62056;SDS011;48016;50.284;18.860;2023-11-21T03:39:19;9.10;;;4.30;;
62056;SDS011;48016;50.284;18.860;2023-11-21T03:41:46;9.70;;;4.30;;
62056;SDS011;48016;50.284;18.860;2023-11-21T03:44:13;6.80;;;4.10;;
62056;SDS011;48016;50.284;18.860;2023-11-21T03:46:40;7.30;;;3.70;;
62056;SDS011;48016;50.284;18.860;2023-11-21T03:49:07;8.70;;;3.80;;
62056;SDS011;48016;50.284;18.860;2023-11-21T03:51:33;9.90;;;4.20;;
62056;SDS011;48016;50.284;18.860;2023-11-21T03:54:00;7.40;;;4.40;;
62056;SDS011;48016;50.284;18.860;2023-11-21T03:56:26;9.40;;;4.30;;
62056;SDS011;48016;50.284;18.860;2023-11-21T03:58:53;9.90;;;5.00;;
62056;SDS011;48016;50.284;18.860;2023-11-21T04:01:23;10.40;;;4.40;;
62056;SDS011;48016;50.284;18.860;2023-11-21T04:03:51;9.70;;;4.80;;
62056;SDS011;48016;50.284;18.860;2023-11-21T04:06:18;8.10;;;4.30;;
62056;SDS011;48016;50.284;18.860;2023-11-21T04:08:45;10.20;;;4.50;;
62056;SDS011;48016;50.284;18.860;2023-11-21T04:11:12;11.20;;;5.10;;
62056;SDS011;48016;50.284;18.860;2023-11-21T04:13:39;10.70;;;5.10;;
62056;SDS011;48016;50.284;18.860;2023-11-21T04:16:07;11.60;;;5.30;;
62056;SDS011;48016;50.284;18.860;2023-11-21T04:18:35;12.20;;;6.10;;
62056;SDS011;48016;50.284;18.860;2023-11-21T04:21:04;10.10;;;5.70;;
62056;SDS011;48016;50.284;18.860;2023-11-21T04:23:31;11.20;;;5.80;;
62056;SDS011;48016;50.284;18.860;2023-11-21T04:25:58;12.40;;;6.10;;
62056;SDS011;48016;50.284;18.860;2023-11-21T04:28:25;13.70;;;5.90;;
62056;SDS011;48016;50.284;18.860;2023-11-21T04:30:51;9.80;;;5.90;;
62056;SDS011;48016;50.284;18.860;2023-11-21T04:33:18;11.70;;;6.80;;
62056;SDS011;48016;50.284;18.860;2023-11-21T04:35:44;12.60;;;6.50;;
62056;SDS011;48016;50.284;18.860;2023-11-21T04:40:38;14.00;;;7.50;;
62056;SDS011;48016;50.284;18.860;2023-11-21T04:43:05;13.10;;;6.80;;
62056;SDS011;48016;50.284;18.860;2023-11-21T04:45:32;11.30;;;7.40;;
62056;SDS011;48016;50.284;18.860;2023-11-21T04:47:58;15.00;;;7.00;;
62056;SDS011;48016;50.284;18.860;2023-11-21T04:50:25;12.70;;;7.50;;
62056;SDS011;48016;50.284;18.860;2023-11-21T04:52:53;11.60;;;7.20;;
62056;SDS011;48016;50.284;18.860;2023-11-21T04:55:20;12.50;;;7.10;;
62056;SDS011;48016;50.284;18.860;2023-11-21T04:57:47;11.70;;;6.90;;
62056;SDS011;48016;50.284;18.860;2023-11-21T05:00:13;16.20;;;9.00;;
62056;SDS011;48016;50.284;18.860;2023-11-21T05:02:42;12.40;;;7.50;;
62056;SDS011;48016;50.284;18.860;2023-11-21T05:05:10;12.10;;;7.20;;
62056;SDS011;48016;50.284;18.860;2023-11-21T05:07:37;13.10;;;7.60;;
62056;SDS011;48016;50.284;18.860;2023-11-21T05:10:07;11.50;;;7.60;;
62056;SDS011;48016;50.284;18.860;2023-11-21T05:12:37;12.60;;;7.10;;
62056;SDS011;48016;50.284;18.860;2023-11-21T05:15:04;12.00;;;8.10;;
62056;SDS011;48016;50.284;18.860;2023-11-21T05:17:38;13.40;;;8.30;;
62056;SDS011;48016;50.284;18.860;2023-11-21T05:20:09;10.00;;;7.40;;
62056;SDS011;48016;50.284;18.860;2023-11-21T05:22:37;13.60;;;8.10;;
62056;SDS011;48016;50.284;18.860;2023-11-21T05:25:04;11.90;;;7.50;;
62056;SDS011;48016;50.284;18.860;2023-11-21T05:27:31;14.50;;;7.70;;
62056;SDS011;48016;50.284;18.860;2023-11-21T05:29:58;12.60;;;7.90;;
62056;SDS011;48016;50.284;18.860;2023-11-21T05:32:25;13.90;;;8.00;;
62056;SDS011;48016;50.284;18.860;2023-11-21T05:34:52;13.20;;;8.10;;
62056;SDS011;48016;50.284;18.860;2023-11-21T05:37:19;12.80;;;7.50;;
62056;SDS011;48016;50.284;18.860;2023-11-21T05:39:45;13.90;;;7.60;;
62056;SDS011;48016;50.284;18.860;2023-11-21T05:42:13;11.60;;;7.40;;
62056;SDS011;48016;50.284;18.860;2023-11-21T05:44:41;12.50;;;7.60;;
62056;SDS011;48016;50.284;18.860;2023-11-21T05:47:08;11.80;;;7.90;;
62056;SDS011;48016;50.284;18.860;2023-11-21T05:49:35;13.20;;;8.10;;
62056;SDS011;48016;50.284;18.860;2023-11-21T05:52:03;12.10;;;7.50;;
62056;SDS011;48016;50.284;18.860;2023-11-21T05:54:31;13.90;;;8.70;;
62056;SDS011;48016;50.284;18.860;2023-11-21T05:56:59;12.70;;;7.70;;
62056;SDS011;48016;50.284;18.860;2023-11-21T05:59:25;14.50;;;8.80;;
62056;SDS011;48016;50.284;18.860;2023-11-21T06:01:52;16.90;;;9.00;;
62056;SDS011;48016;50.284;18.860;2023-11-21T06:04:20;15.10;;;9.20;;
62056;SDS011;48016;50.284;18.860;2023-11-21T06:06:51;12.20;;;7.90;;
62056;SDS011;48016;50.284;18.860;2023-11-21T06:09:19;16.30;;;9.20;;
62056;SDS011;48016;50.284;18.860;2023-11-21T06:11:45;15.10;;;9.40;;
62056;SDS011;48016;50.284;18.860;2023-11-21T06:14:12;13.80;;;9.20;;
62056;SDS011;48016;50.284;18.860;2023-11-21T06:16:39;16.90;;;10.10;;
62056;SDS011;48016;50.284;18.860;2023-11-21T06:19:06;16.50;;;9.40;;
62056;SDS011;48016;50.284;18.860;2023-11-21T06:21:33;15.20;;;10.50;;
62056;SDS011;48016;50.284;18.860;2023-11-21T06:24:00;16.00;;;10.00;;
62056;SDS011;48016;50.284;18.860;2023-11-21T06:26:27;17.70;;;10.50;;
62056;SDS011;48016;50.284;18.860;2023-11-21T06:28:54;15.90;;;9.40;;
62056;SDS011;48016;50.284;18.860;2023-11-21T06:31:22;13.70;;;9.10;;
62056;SDS011;48016;50.284;18.860;2023-11-21T06:33:49;17.00;;;9.70;;
62056;SDS011;48016;50.284;18.860;2023-11-21T06:36:18;16.40;;;9.30;;
62056;SDS011;48016;50.284;18.860;2023-11-21T06:38:44;13.20;;;8.60;;
62056;SDS011;48016;50.284;18.860;2023-11-21T06:41:12;16.30;;;10.00;;
62056;SDS011;48016;50.284;18.860;2023-11-21T06:43:42;20.50;;;12.10;;
62056;SDS011;48016;50.284;18.860;2023-11-21T06:46:12;18.60;;;11.70;;
62056;SDS011;48016;50.284;18.860;2023-11-21T06:48:42;20.00;;;11.70;;
62056;SDS011;48016;50.284;18.860;2023-11-21T06:51:09;19.10;;;12.10;;
62056;SDS011;48016;50.284;18.860;2023-11-21T06:53:36;18.50;;;12.60;;
62056;SDS011;48016;50.284;18.860;2023-11-21T06:56:03;18.00;;;11.60;;
62056;SDS011;48016;50.284;18.860;2023-11-21T06:58:30;20.70;;;12.40;;
62056;SDS011;48016;50.284;18.860;2023-11-21T07:00:56;18.10;;;11.60;;
62056;SDS011;48016;50.284;18.860;2023-11-21T07:03:24;19.10;;;11.60;;
62056;SDS011;48016;50.284;18.860;2023-11-21T07:05:51;15.90;;;10.30;;
62056;SDS011;48016;50.284;18.860;2023-11-21T07:08:18;15.60;;;9.70;;
62056;SDS011;48016;50.284;18.860;2023-11-21T07:10:44;18.30;;;9.80;;
62056;SDS011;48016;50.284;18.860;2023-11-21T07:13:11;14.50;;;9.60;;
62056;SDS011;48016;50.284;18.860;2023-11-21T07:15:38;17.30;;;11.00;;
62056;SDS011;48016;50.284;18.860;2023-11-21T07:18:05;19.30;;;10.50;;
62056;SDS011;48016;50.284;18.860;2023-11-21T07:20:34;19.00;;;11.00;;
62056;SDS011;48016;50.284;18.860;2023-11-21T07:23:00;22.70;;;11.30;;
62056;SDS011;48016;50.284;18.860;2023-11-21T07:25:27;19.50;;;9.60;;
62056;SDS011;48016;50.284;18.860;2023-11-21T07:27:53;17.70;;;11.50;;
62056;SDS011;48016;50.284;18.860;2023-11-21T07:30:21;18.90;;;10.70;;
62056;SDS011;48016;50.284;18.860;2023-11-21T07:32:48;17.70;;;11.20;;
62056;SDS011;48016;50.284;18.860;2023-11-21T07:35:15;18.70;;;11.40;;
62056;SDS011;48016;50.284;18.860;2023-11-21T07:37:42;15.90;;;11.00;;
62056;SDS011;48016;50.284;18.860;2023-11-21T07:40:09;15.80;;;10.50;;
62056;SDS011;48016;50.284;18.860;2023-11-21T07:42:37;16.00;;;11.10;;
62056;SDS011;48016;50.284;18.860;2023-11-21T07:45:04;21.30;;;11.70;;
62056;SDS011;48016;50.284;18.860;2023-11-21T07:47:33;17.00;;;10.30;;
62056;SDS011;48016;50.284;18.860;2023-11-21T07:50:01;17.10;;;11.40;;
62056;SDS011;48016;50.284;18.860;2023-11-21T07:52:29;15.90;;;10.70;;
62056;SDS011;48016;50.284;18.860;2023-11-21T07:54:56;15.50;;;9.90;;
62056;SDS011;48016;50.284;18.860;2023-11-21T07:57:23;20.60;;;10.10;;
62056;SDS011;48016;50.284;18.860;2023-11-21T07:59:49;17.50;;;10.50;;
62056;SDS011;48016;50.284;18.860;2023-11-21T08:02:16;17.40;;;11.40;;
62056;SDS011;48016;50.284;18.860;2023-11-21T08:07:10;20.80;;;13.90;;
62056;SDS011;48016;50.284;18.860;2023-11-21T08:09:37;22.20;;;11.60;;
62056;SDS011;48016;50.284;18.860;2023-11-21T08:12:04;18.50;;;11.70;;
62056;SDS011;48016;50.284;18.860;2023-11-21T08:14:31;22.00;;;12.80;;
62056;SDS011;48016;50.284;18.860;2023-11-21T08:16:57;21.50;;;12.50;;
62056;SDS011;48016;50.284;18.860;2023-11-21T08:19:24;20.20;;;12.00;;
62056;SDS011;48016;50.284;18.860;2023-11-21T08:21:53;18.00;;;12.30;;
62056;SDS011;48016;50.284;18.860;2023-11-21T08:24:21;22.70;;;13.60;;
62056;SDS011;48016;50.284;18.860;2023-11-21T08:26:48;18.80;;;12.30;;
62056;SDS011;48016;50.284;18.860;2023-11-21T08:29:14;18.80;;;11.70;;
62056;SDS011;48016;50.284;18.860;2023-11-21T08:31:41;18.10;;;10.70;;
62056;SDS011;48016;50.284;18.860;2023-11-21T08:34:07;20.50;;;10.70;;
62056;SDS011;48016;50.284;18.860;2023-11-21T08:36:34;15.90;;;9.80;;
62056;SDS011;48016;50.284;18.860;2023-11-21T08:39:01;14.80;;;9.50;;
62056;SDS011;48016;50.284;18.860;2023-11-21T08:41:28;15.40;;;9.90;;
62056;SDS011;48016;50.284;18.860;2023-11-21T08:43:54;18.60;;;11.30;;
62056;SDS011;48016;50.284;18.860;2023-11-21T08:46:21;17.80;;;11.30;;
62056;SDS011;48016;50.284;18.860;2023-11-21T08:48:49;19.10;;;12.10;;
62056;SDS011;48016;50.284;18.860;2023-11-21T08:51:18;20.50;;;12.10;;
62056;SDS011;48016;50.284;18.860;2023-11-21T08:53:45;19.50;;;11.70;;
62056;SDS011;48016;50.284;18.860;2023-11-21T08:56:14;19.30;;;12.10;;
62056;SDS011;48016;50.284;18.860;2023-11-21T08:58:41;16.20;;;10.30;;
62056;SDS011;48016;50.284;18.860;2023-11-21T09:01:08;13.80;;;9.10;;
62056;SDS011;48016;50.284;18.860;2023-11-21T09:03:34;12.60;;;8.30;;
62056;SDS011;48016;50.284;18.860;2023-11-21T09:06:01;14.60;;;8.80;;
62056;SDS011;48016;50.284;18.860;2023-11-21T09:08:28;14.40;;;8.00;;
62056;SDS011;48016;50.284;18.860;2023-11-21T09:13:22;13.20;;;8.50;;
62056;SDS011;48016;50.284;18.860;2023-11-21T09:15:50;15.90;;;9.40;;
62056;SDS011;48016;50.284;18.860;2023-11-21T09:18:17;15.70;;;8.60;;
62056;SDS011;48016;50.284;18.860;2023-11-21T09:20:43;12.20;;;7.80;;
62056;SDS011;48016;50.284;18.860;2023-11-21T09:23:10;11.50;;;8.10;;
62056;SDS011;48016;50.284;18.860;2023-11-21T09:25:37;12.20;;;7.90;;
62056;SDS011;48016;50.284;18.860;2023-11-21T09:28:04;14.50;;;8.40;;
62056;SDS011;48016;50.284;18.860;2023-11-21T09:30:34;12.20;;;7.90;;
62056;SDS011;48016;50.284;18.860;2023-11-21T09:33:01;12.80;;;7.50;;
62056;SDS011;48016;50.284;18.860;2023-11-21T09:35:28;12.00;;;6.70;;
62056;SDS011;48016;50.284;18.860;2023-11-21T09:37:55;13.80;;;7.20;;
62056;SDS011;48016;50.284;18.860;2023-11-21T09:40:22;11.20;;;6.10;;
62056;SDS011;48016;50.284;18.860;2023-11-21T09:42:57;12.30;;;6.10;;
62056;SDS011;48016;50.284;18.860;2023-11-21T09:45:25;11.50;;;7.00;;
62056;SDS011;48016;50.284;18.860;2023-11-21T09:47:55;10.20;;;6.30;;
62056;SDS011;48016;50.284;18.860;2023-11-21T09:50:23;11.50;;;6.00;;
62056;SDS011;48016;50.284;18.860;2023-11-21T09:55:42;8.30;;;4.80;;
62056;SDS011;48016;50.284;18.860;2023-11-21T09:58:10;8.60;;;5.10;;
62056;SDS011;48016;50.284;18.860;2023-11-21T10:00:44;9.60;;;5.90;;
62056;SDS011;48016;50.284;18.860;2023-11-21T10:03:12;11.00;;;6.00;;
62056;SDS011;48016;50.284;18.860;2023-11-21T10:05:40;7.50;;;4.70;;
62056;SDS011;48016;50.284;18.860;2023-11-21T10:08:09;7.80;;;5.00;;
62056;SDS011;48016;50.284;18.860;2023-11-21T10:10:37;11.30;;;5.80;;
62056;SDS011;48016;50.284;18.860;2023-11-21T10:13:07;9.20;;;5.50;;
62056;SDS011;48016;50.284;18.860;2023-11-21T10:15:38;11.50;;;5.40;;
62056;SDS011;48016;50.284;18.860;2023-11-21T10:18:10;7.70;;;4.10;;
62056;SDS011;48016;50.284;18.860;2023-11-21T10:20:38;7.00;;;4.10;;
62056;SDS011;48016;50.284;18.860;2023-11-21T10:23:04;5.90;;;3.30;;
62056;SDS011;48016;50.284;18.860;2023-11-21T10:25:33;5.20;;;2.10;;
62056;SDS011;48016;50.284;18.860;2023-11-21T10:28:01;3.80;;;1.80;;
62056;SDS011;48016;50.284;18.860;2023-11-21T10:30:35;3.30;;;1.60;;
62056;SDS011;48016;50.284;18.860;2023-11-21T10:33:06;3.80;;;1.50;;
62056;SDS011;48016;50.284;18.860;2023-11-21T10:35:46;5.90;;;1.70;;
62056;SDS011;48016;50.284;18.860;2023-11-21T10:38:17;3.50;;;1.80;;
62056;SDS011;48016;50.284;18.860;2023-11-21T10:40:44;4.60;;;2.30;;
62056;SDS011;48016;50.284;18.860;2023-11-21T10:43:13;4.10;;;2.10;;
62056;SDS011;48016;50.284;18.860;2023-11-21T10:45:41;4.10;;;2.00;;
62056;SDS011;48016;50.284;18.860;2023-11-21T10:48:09;4.40;;;2.20;;
62056;SDS011;48016;50.284;18.860;2023-11-21T10:50:37;4.80;;;2.60;;
62056;SDS011;48016;50.284;18.860;2023-11-21T10:53:04;5.80;;;2.30;;
62056;SDS011;48016;50.284;18.860;2023-11-21T10:55:32;5.60;;;2.70;;
62056;SDS011;48016;50.284;18.860;2023-11-21T10:58:01;12.20;;;3.40;;
62056;SDS011;48016;50.284;18.860;2023-11-21T11:00:31;8.60;;;3.50;;
62056;SDS011;48016;50.284;18.860;2023-11-21T11:02:59;7.40;;;3.90;;
62056;SDS011;48016;50.284;18.860;2023-11-21T11:05:27;8.30;;;3.90;;
62056;SDS011;48016;50.284;18.860;2023-11-21T11:10:26;10.30;;;5.60;;
62056;SDS011;48016;50.284;18.860;2023-11-21T11:15:21;6.50;;;3.00;;
62056;SDS011;48016;50.284;18.860;2023-11-21T11:17:48;4.90;;;2.70;;
62056;SDS011;48016;50.284;18.860;2023-11-21T11:20:15;4.70;;;2.50;;
62056;SDS011;48016;50.284;18.860;2023-11-21T11:28:18;4.50;;;2.20;;
62056;SDS011;48016;50.284;18.860;2023-11-21T11:31:00;4.00;;;2.10;;
62056;SDS011;48016;50.284;18.860;2023-11-21T11:33:39;2.70;;;1.50;;
62056;SDS011;48016;50.284;18.860;2023-11-21T11:36:12;4.40;;;2.20;;
62056;SDS011;48016;50.284;18.860;2023-11-21T11:38:46;5.30;;;2.40;;
62056;SDS011;48016;50.284;18.860;2023-11-21T11:41:13;4.40;;;2.30;;
62056;SDS011;48016;50.284;18.860;2023-11-21T11:43:49;4.60;;;2.10;;
62056;SDS011;48016;50.284;18.860;2023-11-21T11:46:16;4.90;;;2.30;;
62056;SDS011;48016;50.284;18.860;2023-11-21T11:48:43;4.80;;;2.20;;
62056;SDS011;48016;50.284;18.860;2023-11-21T11:51:11;4.60;;;2.70;;
62056;SDS011;48016;50.284;18.860;2023-11-21T11:53:47;7.00;;;2.90;;
62056;SDS011;48016;50.284;18.860;2023-11-21T11:58:55;5.80;;;3.10;;
62056;SDS011;48016;50.284;18.860;2023-11-21T12:01:24;6.50;;;2.70;;
62056;SDS011;48016;50.284;18.860;2023-11-21T12:06:52;6.40;;;3.10;;
62056;SDS011;48016;50.284;18.860;2023-11-21T12:09:20;4.70;;;2.50;;
62056;SDS011;48016;50.284;18.860;2023-11-21T12:11:48;5.10;;;2.20;;
62056;SDS011;48016;50.284;18.860;2023-11-21T12:14:15;6.70;;;2.50;;
62056;SDS011;48016;50.284;18.860;2023-11-21T12:16:42;5.50;;;2.80;;
62056;SDS011;48016;50.284;18.860;2023-11-21T12:19:10;5.00;;;2.80;;
62056;SDS011;48016;50.284;18.860;2023-11-21T12:21:38;5.90;;;2.90;;
62056;SDS011;48016;50.284;18.860;2023-11-21T12:24:07;6.70;;;2.70;;
62056;SDS011;48016;50.284;18.860;2023-11-21T12:26:40;5.30;;;3.00;;
62056;SDS011;48016;50.284;18.860;2023-11-21T12:29:06;6.10;;;3.00;;
62056;SDS011;48016;50.284;18.860;2023-11-21T12:31:36;5.80;;;3.00;;
62056;SDS011;48016;50.284;18.860;2023-11-21T12:34:03;6.40;;;3.00;;
62056;SDS011;48016;50.284;18.860;2023-11-21T12:36:30;7.70;;;3.50;;
62056;SDS011;48016;50.284;18.860;2023-11-21T12:38:57;6.20;;;3.30;;
62056;SDS011;48016;50.284;18.860;2023-11-21T12:41:24;5.50;;;3.60;;
62056;SDS011;48016;50.284;18.860;2023-11-21T12:43:51;6.10;;;3.40;;
62056;SDS011;48016;50.284;18.860;2023-11-21T12:46:18;7.60;;;4.00;;
62056;SDS011;48016;50.284;18.860;2023-11-21T12:48:46;10.00;;;4.70;;
62056;SDS011;48016;50.284;18.860;2023-11-21T12:51:13;6.90;;;3.70;;
62056;SDS011;48016;50.284;18.860;2023-11-21T12:53:44;8.10;;;4.20;;
62056;SDS011;48016;50.284;18.860;2023-11-21T12:56:11;7.60;;;4.00;;
62056;SDS011;48016;50.284;18.860;2023-11-21T12:58:38;7.30;;;4.20;;
62056;SDS011;48016;50.284;18.860;2023-11-21T13:01:08;5.70;;;3.50;;
62056;SDS011;48016;50.284;18.860;2023-11-21T13:03:38;6.80;;;3.80;;
62056;SDS011;48016;50.284;18.860;2023-11-21T13:06:06;8.50;;;3.80;;
62056;SDS011;48016;50.284;18.860;2023-11-21T13:08:36;6.80;;;3.60;;
62056;SDS011;48016;50.284;18.860;2023-11-21T13:11:05;7.80;;;3.50;;
62056;SDS011;48016;50.284;18.860;2023-11-21T13:13:32;8.90;;;4.00;;
62056;SDS011;48016;50.284;18.860;2023-11-21T13:16:00;6.40;;;3.50;;
62056;SDS011;48016;50.284;18.860;2023-11-21T13:18:27;7.00;;;3.30;;
62056;SDS011;48016;50.284;18.860;2023-11-21T13:20:55;9.50;;;4.10;;
62056;SDS011;48016;50.284;18.860;2023-11-21T13:23:24;8.50;;;4.50;;
62056;SDS011;48016;50.284;18.860;2023-11-21T13:25:51;8.10;;;3.30;;
62056;SDS011;48016;50.284;18.860;2023-11-21T13:30:47;8.30;;;3.90;;
62056;SDS011;48016;50.284;18.860;2023-11-21T13:33:14;8.10;;;3.80;;
62056;SDS011;48016;50.284;18.860;2023-11-21T13:35:47;6.70;;;4.10;;
62056;SDS011;48016;50.284;18.860;2023-11-21T13:38:16;7.20;;;4.20;;
62056;SDS011;48016;50.284;18.860;2023-11-21T13:40:46;8.30;;;4.50;;
62056;SDS011;48016;50.284;18.860;2023-11-21T13:43:20;7.40;;;4.20;;
62056;SDS011;48016;50.284;18.860;2023-11-21T13:45:50;7.70;;;5.00;;
62056;SDS011;48016;50.284;18.860;2023-11-21T13:48:25;7.40;;;4.40;;
62056;SDS011;48016;50.284;18.860;2023-11-21T13:50:57;7.60;;;4.10;;
62056;SDS011;48016;50.284;18.860;2023-11-21T13:53:28;7.50;;;4.60;;
62056;SDS011;48016;50.284;18.860;2023-11-21T13:55:55;9.00;;;5.30;;
62056;SDS011;48016;50.284;18.860;2023-11-21T13:58:24;7.00;;;3.80;;
62056;SDS011;48016;50.284;18.860;2023-11-21T14:01:05;9.30;;;4.10;;
62056;SDS011;48016;50.284;18.860;2023-11-21T14:03:39;6.90;;;3.90;;
62056;SDS011;48016;50.284;18.860;2023-11-21T14:06:16;8.10;;;4.00;;
62056;SDS011;48016;50.284;18.860;2023-11-21T14:08:50;8.30;;;3.80;;
62056;SDS011;48016;50.284;18.860;2023-11-21T14:11:17;6.20;;;3.70;;
62056;SDS011;48016;50.284;18.860;2023-11-21T14:16:15;6.20;;;3.40;;
62056;SDS011;48016;50.284;18.860;2023-11-21T14:18:43;7.60;;;3.80;;
62056;SDS011;48016;50.284;18.860;2023-11-21T14:21:21;8.40;;;4.30;;
62056;SDS011;48016;50.284;18.860;2023-11-21T14:23:48;8.70;;;4.60;;
62056;SDS011;48016;50.284;18.860;2023-11-21T14:26:15;8.00;;;4.90;;
62056;SDS011;48016;50.284;18.860;2023-11-21T14:28:43;7.70;;;4.80;;
62056;SDS011;48016;50.284;18.860;2023-11-21T14:31:09;8.40;;;5.20;;
62056;SDS011;48016;50.284;18.860;2023-11-21T14:33:40;10.40;;;6.80;;
62056;SDS011;48016;50.284;18.860;2023-11-21T14:36:07;9.60;;;6.80;;
62056;SDS011;48016;50.284;18.860;2023-11-21T14:38:36;9.60;;;7.10;;
62056;SDS011;48016;50.284;18.860;2023-11-21T14:41:06;12.80;;;8.60;;
62056;SDS011;48016;50.284;18.860;2023-11-21T14:43:37;16.30;;;9.20;;
62056;SDS011;48016;50.284;18.860;2023-11-21T14:46:05;13.60;;;10.00;;
62056;SDS011;48016;50.284;18.860;2023-11-21T14:48:36;16.70;;;9.70;;
62056;SDS011;48016;50.284;18.860;2023-11-21T14:51:23;19.70;;;10.50;;
62056;SDS011;48016;50.284;18.860;2023-11-21T14:53:52;15.30;;;9.10;;
62056;SDS011;48016;50.284;18.860;2023-11-21T14:56:29;14.80;;;9.10;;
62056;SDS011;48016;50.284;18.860;2023-11-21T14:59:01;12.70;;;9.10;;
62056;SDS011;48016;50.284;18.860;2023-11-21T15:01:42;14.10;;;9.10;;
62056;SDS011;48016;50.284;18.860;2023-11-21T15:04:12;16.90;;;10.30;;
62056;SDS011;48016;50.284;18.860;2023-11-21T15:06:47;15.10;;;10.30;;